createdAt,value
2022-08-06T00:00:03.328Z,13.11
2022-08-06T00:00:35.357Z,13.10
2022-08-06T00:01:35.400Z,13.08
2022-08-06T00:02:35.634Z,13.03
2022-08-06T00:03:35.385Z,13.01
2022-08-06T00:04:35.364Z,12.98
2022-08-06T00:05:39.641Z,12.96
2022-08-06T00:06:35.365Z,12.96
2022-08-06T00:07:44.708Z,12.93
2022-08-06T00:08:35.373Z,12.92
2022-08-06T00:09:52.072Z,12.89
2022-08-06T00:10:35.384Z,12.88
2022-08-06T00:11:35.382Z,12.85
2022-08-06T00:12:36.089Z,12.84
2022-08-06T00:13:35.390Z,12.82
2022-08-06T00:14:35.377Z,12.82
2022-08-06T00:16:08.493Z,12.81
2022-08-06T00:16:38.844Z,12.80
2022-08-06T00:17:35.392Z,12.79
2022-08-06T00:18:35.391Z,12.77
2022-08-06T00:19:57.821Z,12.78
2022-08-06T00:20:35.409Z,12.78
2022-08-06T00:21:41.715Z,12.79
2022-08-06T00:22:35.407Z,12.79
2022-08-06T00:23:52.428Z,12.78
2022-08-06T00:24:35.396Z,12.78
2022-08-06T00:25:51.488Z,12.78
2022-08-06T00:26:35.390Z,12.78
2022-08-06T00:27:38.578Z,12.78
2022-08-06T00:28:35.387Z,12.78
2022-08-06T00:29:43.840Z,12.81
2022-08-06T00:30:35.403Z,12.80
2022-08-06T00:31:35.400Z,12.79
2022-08-06T00:32:35.400Z,12.78
2022-08-06T00:33:50.080Z,12.77
2022-08-06T00:34:35.400Z,12.76
2022-08-06T00:35:35.425Z,12.74
2022-08-06T00:36:35.392Z,12.72
2022-08-06T00:37:56.966Z,12.69
2022-08-06T00:38:35.400Z,12.66
2022-08-06T00:39:35.441Z,12.63
2022-08-06T00:40:35.417Z,12.60
2022-08-06T00:41:42.453Z,12.59
2022-08-06T00:42:35.415Z,12.57
2022-08-06T00:43:40.482Z,12.53
2022-08-06T00:44:35.401Z,12.51
2022-08-06T00:45:38.160Z,12.48
2022-08-06T00:46:35.426Z,12.46
2022-08-06T00:48:01.555Z,12.45
2022-08-06T00:48:37.871Z,12.43
2022-08-06T00:49:49.855Z,12.41
2022-08-06T00:50:35.482Z,12.39
2022-08-06T00:51:50.226Z,12.36
2022-08-06T00:52:35.508Z,12.34
2022-08-06T00:53:35.428Z,12.33
2022-08-06T00:54:36.153Z,12.29
2022-08-06T00:55:35.906Z,12.25
2022-08-06T00:56:36.731Z,12.22
2022-08-06T00:57:35.425Z,12.20
2022-08-06T00:58:40.196Z,12.18
2022-08-06T00:59:35.766Z,12.18
2022-08-06T01:00:38.814Z,12.19
2022-08-06T01:01:50.326Z,12.18
2022-08-06T01:02:35.476Z,12.18
2022-08-06T01:03:41.866Z,12.18
2022-08-06T01:04:35.455Z,12.16
2022-08-06T01:06:53.951Z,12.14
2022-08-06T01:06:55.789Z,12.14
2022-08-06T01:07:52.078Z,12.13
2022-08-06T01:08:35.457Z,12.11
2022-08-06T01:09:35.440Z,12.09
2022-08-06T01:10:42.490Z,12.08
2022-08-06T01:11:35.579Z,12.07
2022-08-06T01:12:35.758Z,12.05
2022-08-06T01:14:04.195Z,12.04
2022-08-06T01:14:38.822Z,12.03
2022-08-06T01:15:48.753Z,12.02
2022-08-06T01:16:35.437Z,11.99
2022-08-06T01:17:35.438Z,11.98
2022-08-06T01:18:35.480Z,11.95
2022-08-06T01:21:20.135Z,11.93
2022-08-06T01:21:58.479Z,11.91
2022-08-06T01:21:59.289Z,11.91
2022-08-06T01:22:35.422Z,11.90
2022-08-06T01:23:35.435Z,11.89
2022-08-06T01:24:35.440Z,11.88
2022-08-06T01:25:46.232Z,11.86
2022-08-06T01:26:35.466Z,11.85
2022-08-06T01:27:35.455Z,11.85
2022-08-06T01:28:38.275Z,11.84
2022-08-06T01:29:36.472Z,11.83
2022-08-06T01:30:36.479Z,11.83
2022-08-06T01:31:38.787Z,11.83
2022-08-06T01:32:35.478Z,11.82
2022-08-06T01:33:39.118Z,11.78
2022-08-06T01:34:35.482Z,11.76
2022-08-06T01:35:46.569Z,11.73
2022-08-06T01:36:35.452Z,11.71
2022-08-06T01:37:38.788Z,11.69
2022-08-06T01:38:36.149Z,11.68
2022-08-06T01:39:53.327Z,11.64
2022-08-06T01:40:35.540Z,11.64
2022-08-06T01:41:54.672Z,11.63
2022-08-06T01:42:36.665Z,11.63
2022-08-06T01:44:04.997Z,11.62
2022-08-06T01:44:35.467Z,11.60
2022-08-06T01:45:52.709Z,11.61
2022-08-06T01:46:35.465Z,11.60
2022-08-06T01:47:54.317Z,11.57
2022-08-06T01:48:35.508Z,11.55
2022-08-06T01:50:00.774Z,11.54
2022-08-06T01:50:35.488Z,11.52
2022-08-06T01:52:14.524Z,11.51
2022-08-06T01:52:36.616Z,11.51
2022-08-06T01:54:05.859Z,11.51
2022-08-06T01:54:35.458Z,11.49
2022-08-06T01:55:56.465Z,11.48
2022-08-06T01:56:56.941Z,11.47
2022-08-06T01:58:08.234Z,11.44
2022-08-06T01:58:35.490Z,11.41
2022-08-06T01:59:36.823Z,11.39
2022-08-06T02:00:35.502Z,11.36
2022-08-06T02:01:53.283Z,11.35
2022-08-06T02:02:35.541Z,11.34
2022-08-06T02:03:49.966Z,11.32
2022-08-06T02:04:39.113Z,11.31
2022-08-06T02:05:45.051Z,11.28
2022-08-06T02:06:35.501Z,11.26
2022-08-06T02:08:37.715Z,11.25
2022-08-06T02:08:39.838Z,11.24
2022-08-06T02:09:37.715Z,11.24
2022-08-06T02:10:35.496Z,11.24
2022-08-06T02:12:04.258Z,11.24
2022-08-06T02:12:35.546Z,11.25
2022-08-06T02:13:43.140Z,11.24
2022-08-06T02:14:35.532Z,11.23
2022-08-06T02:15:58.962Z,11.22
2022-08-06T02:16:35.524Z,11.21
2022-08-06T02:17:54.236Z,11.20
2022-08-06T02:18:37.159Z,11.20
2022-08-06T02:19:48.279Z,11.21
2022-08-06T02:20:37.786Z,11.21
2022-08-06T02:21:35.560Z,11.19
2022-08-06T02:22:35.575Z,11.18
2022-08-06T02:23:35.595Z,11.20
2022-08-06T02:24:35.588Z,11.18
2022-08-06T02:25:36.215Z,11.16
2022-08-06T02:26:35.603Z,11.16
2022-08-06T02:27:43.484Z,11.16
2022-08-06T02:28:35.626Z,11.15
2022-08-06T02:30:05.462Z,11.14
2022-08-06T02:30:37.102Z,11.12
2022-08-06T02:31:38.806Z,11.10
2022-08-06T02:32:35.655Z,11.08
2022-08-06T02:34:03.383Z,11.08
2022-08-06T02:34:35.651Z,11.05
2022-08-06T02:35:37.504Z,11.06
2022-08-06T02:36:35.627Z,11.05
2022-08-06T02:38:02.339Z,11.03
2022-08-06T02:38:35.639Z,11.02
2022-08-06T02:39:41.195Z,11.00
2022-08-06T02:40:35.689Z,10.98
2022-08-06T02:41:38.463Z,10.96
2022-08-06T02:42:35.646Z,10.93
2022-08-06T02:43:35.656Z,10.92
2022-08-06T02:44:35.714Z,10.89
2022-08-06T02:45:38.180Z,10.89
2022-08-06T02:46:35.773Z,10.88
2022-08-06T02:47:45.485Z,10.88
2022-08-06T02:48:35.774Z,10.87
2022-08-06T02:49:35.776Z,10.87
2022-08-06T02:50:36.403Z,10.86
2022-08-06T02:52:11.430Z,10.86
2022-08-06T02:52:37.114Z,10.85
2022-08-06T02:53:37.465Z,10.86
2022-08-06T02:54:46.101Z,10.84
2022-08-06T02:55:35.780Z,10.83
2022-08-06T02:56:42.652Z,10.82
2022-08-06T02:57:37.901Z,10.82
2022-08-06T02:58:36.610Z,10.79
2022-08-06T02:59:39.082Z,10.78
2022-08-06T03:00:35.806Z,10.76
2022-08-06T03:01:43.131Z,10.76
2022-08-06T03:02:35.798Z,10.76
2022-08-06T03:03:35.817Z,10.76
2022-08-06T03:04:35.787Z,10.75
2022-08-06T03:05:55.272Z,10.76
2022-08-06T03:06:35.770Z,10.74
2022-08-06T03:07:35.808Z,10.72
2022-08-06T03:08:36.189Z,10.71
2022-08-06T03:09:38.488Z,10.69
2022-08-06T03:10:35.814Z,10.69
2022-08-06T03:11:35.813Z,10.66
2022-08-06T03:12:35.809Z,10.65
2022-08-06T03:13:36.502Z,10.65
2022-08-06T03:15:07.605Z,10.64
2022-08-06T03:15:39.265Z,10.63
2022-08-06T03:16:36.363Z,10.62
2022-08-06T03:17:35.806Z,10.63
2022-08-06T03:18:35.808Z,10.64
2022-08-06T03:19:55.585Z,10.62
2022-08-06T03:20:35.821Z,10.63
2022-08-06T03:21:37.895Z,10.64
2022-08-06T03:22:44.381Z,10.65
2022-08-06T03:23:35.814Z,10.64
2022-08-06T03:24:35.813Z,10.63
2022-08-06T03:25:42.104Z,10.63
2022-08-06T03:26:35.807Z,10.63
2022-08-06T03:27:43.157Z,10.61
2022-08-06T03:28:35.821Z,10.61
2022-08-06T03:29:35.818Z,10.61
2022-08-06T03:30:35.843Z,10.58
2022-08-06T03:31:35.859Z,10.55
2022-08-06T03:32:51.093Z,10.52
2022-08-06T03:33:53.508Z,10.49
2022-08-06T03:34:35.886Z,10.48
2022-08-06T03:35:41.351Z,10.46
2022-08-06T03:36:35.877Z,10.45
2022-08-06T03:37:59.284Z,10.45
2022-08-06T03:38:35.875Z,10.42
2022-08-06T03:39:35.915Z,10.40
2022-08-06T03:40:35.927Z,10.41
2022-08-06T03:41:39.569Z,10.40
2022-08-06T03:42:37.357Z,10.39
2022-08-06T03:43:56.107Z,10.40
2022-08-06T03:44:35.936Z,10.40
2022-08-06T03:45:45.854Z,10.39
2022-08-06T03:46:35.892Z,10.39
2022-08-06T03:48:06.079Z,10.40
2022-08-06T03:48:38.631Z,10.40
2022-08-06T03:49:40.479Z,10.38
2022-08-06T03:50:35.902Z,10.38
2022-08-06T03:51:52.127Z,10.38
2022-08-06T03:52:35.902Z,10.35
2022-08-06T03:53:35.906Z,10.35
2022-08-06T03:54:39.747Z,10.34
2022-08-06T03:55:36.983Z,10.33
2022-08-06T03:56:35.904Z,10.31
2022-08-06T03:57:40.454Z,10.30
2022-08-06T03:58:35.921Z,10.28
2022-08-06T03:59:43.086Z,10.29
2022-08-06T04:00:35.928Z,10.31
2022-08-06T04:01:36.035Z,10.29
2022-08-06T04:02:44.810Z,10.27
2022-08-06T04:03:39.617Z,10.25
2022-08-06T04:04:35.932Z,10.24
2022-08-06T04:05:35.917Z,10.23
2022-08-06T04:06:35.918Z,10.19
2022-08-06T04:07:54.555Z,10.19
2022-08-06T04:08:35.901Z,10.16
2022-08-06T04:09:59.339Z,10.15
2022-08-06T04:10:35.925Z,10.15
2022-08-06T04:12:36.908Z,10.15
2022-08-06T04:12:42.095Z,10.15
2022-08-06T04:14:05.121Z,10.15
2022-08-06T04:14:35.921Z,10.15
2022-08-06T04:15:35.962Z,10.14
2022-08-06T04:16:36.735Z,10.15
2022-08-06T04:17:35.917Z,10.17
2022-08-06T04:18:42.370Z,10.17
2022-08-06T04:19:39.631Z,10.16
2022-08-06T04:20:41.977Z,10.14
2022-08-06T04:23:04.794Z,10.10
2022-08-06T04:23:09.100Z,10.09
2022-08-06T04:23:38.821Z,10.08
2022-08-06T04:24:35.939Z,10.07
2022-08-06T04:25:37.283Z,10.07
2022-08-06T04:26:35.927Z,10.08
2022-08-06T04:27:35.933Z,10.09
2022-08-06T04:28:35.947Z,10.11
2022-08-06T04:29:57.285Z,10.12
2022-08-06T04:30:35.952Z,10.13
2022-08-06T04:32:11.771Z,10.14
2022-08-06T04:32:35.999Z,10.15
2022-08-06T04:33:36.081Z,10.15
2022-08-06T04:36:03.655Z,10.14
2022-08-06T04:36:07.212Z,10.15
2022-08-06T04:36:35.963Z,10.17
2022-08-06T04:37:40.599Z,10.19
2022-08-06T04:38:35.947Z,10.20
2022-08-06T04:39:37.083Z,10.21
2022-08-06T04:40:53.498Z,10.23
2022-08-06T04:41:35.942Z,10.24
2022-08-06T04:42:35.919Z,10.25
2022-08-06T04:43:38.646Z,10.26
2022-08-06T04:44:35.927Z,10.28
2022-08-06T04:46:18.254Z,10.28
2022-08-06T04:46:35.959Z,10.28
2022-08-06T04:47:41.899Z,10.30
2022-08-06T04:48:40.285Z,10.31
2022-08-06T04:50:01.578Z,10.29
2022-08-06T04:50:35.969Z,10.25
2022-08-06T04:52:34.419Z,10.26
2022-08-06T04:52:45.757Z,10.27
2022-08-06T04:53:56.423Z,10.29
2022-08-06T04:54:35.974Z,10.29
2022-08-06T04:55:35.968Z,10.31
2022-08-06T04:56:37.586Z,10.31
2022-08-06T04:57:56.315Z,10.32
2022-08-06T04:58:35.947Z,10.34
2022-08-06T04:59:49.887Z,10.36
2022-08-06T05:01:03.787Z,10.37
2022-08-06T05:01:40.851Z,10.41
2022-08-06T05:02:36.138Z,10.41
2022-08-06T05:04:05.779Z,10.42
2022-08-06T05:04:35.975Z,10.45
2022-08-06T05:05:35.975Z,10.46
2022-08-06T05:06:35.985Z,10.47
2022-08-06T05:07:38.597Z,10.50
2022-08-06T05:08:35.974Z,10.51
2022-08-06T05:09:42.998Z,10.50
2022-08-06T05:10:35.994Z,10.51
2022-08-06T05:11:41.629Z,10.53
2022-08-06T05:12:39.456Z,10.54
2022-08-06T05:13:38.952Z,10.56
2022-08-06T05:14:35.979Z,10.57
2022-08-06T05:15:41.577Z,10.61
2022-08-06T05:16:35.986Z,10.63
2022-08-06T05:17:36.764Z,10.66
2022-08-06T05:19:21.607Z,10.68
2022-08-06T05:19:35.968Z,10.71
2022-08-06T05:20:35.989Z,10.74
2022-08-06T05:22:05.452Z,10.76
2022-08-06T05:22:51.799Z,10.77
2022-08-06T05:23:35.992Z,10.79
2022-08-06T05:24:39.689Z,10.82
2022-08-06T05:25:36.569Z,10.85
2022-08-06T05:26:36.012Z,10.89
2022-08-06T05:27:54.632Z,10.93
2022-08-06T05:28:36.010Z,10.98
2022-08-06T05:29:36.553Z,10.98
2022-08-06T05:30:36.024Z,11.01
2022-08-06T05:31:39.064Z,11.05
2022-08-06T05:32:35.980Z,11.10
2022-08-06T05:33:38.759Z,11.14
2022-08-06T05:34:36.024Z,11.15
2022-08-06T05:35:41.422Z,11.18
2022-08-06T05:36:35.989Z,11.20
2022-08-06T05:38:02.026Z,11.23
2022-08-06T05:38:37.091Z,11.29
2022-08-06T05:39:56.659Z,11.32
2022-08-06T05:40:52.611Z,11.38
2022-08-06T05:41:39.411Z,11.43
2022-08-06T05:42:36.023Z,11.47
2022-08-06T05:44:00.069Z,11.51
2022-08-06T05:44:36.016Z,11.54
2022-08-06T05:45:37.253Z,11.59
2022-08-06T05:46:36.001Z,11.62
2022-08-06T05:47:55.490Z,11.64
2022-08-06T05:48:36.020Z,11.67
2022-08-06T05:49:57.123Z,11.69
2022-08-06T05:50:36.073Z,11.72
2022-08-06T05:51:43.401Z,11.75
2022-08-06T05:52:36.014Z,11.76
2022-08-06T05:54:03.530Z,11.77
2022-08-06T05:54:36.013Z,11.79
2022-08-06T05:55:38.210Z,11.83
2022-08-06T05:56:39.248Z,11.85
2022-08-06T05:57:42.001Z,11.87
2022-08-06T05:58:36.155Z,11.92
2022-08-06T05:59:56.731Z,11.96
2022-08-06T06:00:43.281Z,12.01
2022-08-06T06:01:36.181Z,12.06
2022-08-06T06:02:36.153Z,12.11
2022-08-06T06:03:36.189Z,12.15
2022-08-06T06:04:36.160Z,12.19
2022-08-06T06:06:06.663Z,12.22
2022-08-06T06:06:36.204Z,12.26
2022-08-06T06:08:08.968Z,12.33
2022-08-06T06:08:40.416Z,12.40
2022-08-06T06:09:56.371Z,12.43
2022-08-06T06:10:36.177Z,12.47
2022-08-06T06:11:47.088Z,12.50
2022-08-06T06:12:36.303Z,12.54
2022-08-06T06:13:40.182Z,12.55
2022-08-06T06:14:37.760Z,12.56
2022-08-06T06:16:01.195Z,12.58
2022-08-06T06:16:36.159Z,12.60
2022-08-06T06:17:38.828Z,12.62
2022-08-06T06:18:36.176Z,12.65
2022-08-06T06:19:38.922Z,12.66
2022-08-06T06:21:04.074Z,12.69
2022-08-06T06:21:36.203Z,12.72
2022-08-06T06:22:36.213Z,12.74
2022-08-06T06:23:36.220Z,12.76
2022-08-06T06:24:36.206Z,12.78
2022-08-06T06:25:36.232Z,12.81
2022-08-06T06:26:37.405Z,12.85
2022-08-06T06:27:45.324Z,12.92
2022-08-06T06:28:38.120Z,12.97
2022-08-06T06:30:07.032Z,13.05
2022-08-06T06:30:39.959Z,13.09
2022-08-06T06:32:06.789Z,13.16
2022-08-06T06:32:36.208Z,13.20
2022-08-06T06:33:36.928Z,13.26
2022-08-06T06:34:36.244Z,13.32
2022-08-06T06:35:36.944Z,13.41
2022-08-06T06:36:36.229Z,13.47
2022-08-06T06:37:40.596Z,13.52
2022-08-06T06:38:36.237Z,13.57
2022-08-06T06:39:37.544Z,13.63
2022-08-06T06:40:36.237Z,13.70
2022-08-06T06:41:37.919Z,13.78
2022-08-06T06:42:36.269Z,13.85
2022-08-06T06:43:44.035Z,13.93
2022-08-06T06:45:04.887Z,14.04
2022-08-06T06:46:07.005Z,14.18
2022-08-06T06:46:40.864Z,14.34
2022-08-06T06:47:37.179Z,14.48
2022-08-06T06:48:36.281Z,14.69
2022-08-06T06:50:02.561Z,14.91
2022-08-06T06:50:36.435Z,15.12
2022-08-06T06:51:57.890Z,15.35
2022-08-06T06:52:36.249Z,15.56
2022-08-06T06:54:06.739Z,15.72
2022-08-06T06:54:38.102Z,15.88
2022-08-06T06:55:52.392Z,15.90
2022-08-06T06:56:36.296Z,15.97
2022-08-06T06:57:43.714Z,16.06
2022-08-06T06:58:36.256Z,16.17
2022-08-06T07:00:03.999Z,16.34
2022-08-06T07:00:46.299Z,16.51
2022-08-06T07:01:36.299Z,16.66
2022-08-06T07:02:36.336Z,16.82
2022-08-06T07:03:42.709Z,16.95
2022-08-06T07:04:39.005Z,17.08
2022-08-06T07:06:05.498Z,17.22
2022-08-06T07:06:44.040Z,17.39
2022-08-06T07:07:36.263Z,17.58
2022-08-06T07:08:41.911Z,17.71
2022-08-06T07:09:41.722Z,17.76
2022-08-06T07:10:36.282Z,17.76
2022-08-06T07:11:40.084Z,17.89
2022-08-06T07:12:36.260Z,17.98
2022-08-06T07:13:47.054Z,18.10
2022-08-06T07:14:36.276Z,18.31
2022-08-06T07:15:43.229Z,18.58
2022-08-06T07:16:37.044Z,18.78
2022-08-06T07:17:46.315Z,18.90
2022-08-06T07:18:36.659Z,18.99
2022-08-06T07:19:36.314Z,19.09
2022-08-06T07:20:36.286Z,19.22
2022-08-06T07:21:36.281Z,19.18
2022-08-06T07:22:36.289Z,19.12
2022-08-06T07:24:06.196Z,19.15
2022-08-06T07:24:39.762Z,19.28
2022-08-06T07:25:36.289Z,19.43
2022-08-06T07:26:36.286Z,19.58
2022-08-06T07:27:45.095Z,19.85
2022-08-06T07:28:36.336Z,19.83
2022-08-06T07:29:49.026Z,19.84
2022-08-06T07:30:36.329Z,19.90
2022-08-06T07:31:36.908Z,19.95
2022-08-06T07:32:36.321Z,20.15
2022-08-06T07:33:59.537Z,20.22
2022-08-06T07:34:36.305Z,20.25
2022-08-06T07:35:38.947Z,20.03
2022-08-06T07:36:37.515Z,20.15
2022-08-06T07:37:42.204Z,20.35
2022-08-06T07:38:38.574Z,20.60
2022-08-06T07:39:36.333Z,20.64
2022-08-06T07:40:36.335Z,20.72
2022-08-06T07:41:50.026Z,20.78
2022-08-06T07:42:36.332Z,20.84
2022-08-06T07:43:36.482Z,20.82
2022-08-06T07:44:55.855Z,20.69
2022-08-06T07:45:44.615Z,20.67
2022-08-06T07:46:36.313Z,20.83
2022-08-06T07:47:54.942Z,21.05
2022-08-06T07:48:52.199Z,21.23
2022-08-06T07:50:00.449Z,21.26
2022-08-06T07:50:36.398Z,21.27
2022-08-06T07:51:36.409Z,21.41
2022-08-06T07:52:36.322Z,21.60
2022-08-06T07:53:53.290Z,21.83
2022-08-06T07:54:36.538Z,22.02
2022-08-06T07:55:40.723Z,22.03
2022-08-06T07:56:36.378Z,22.06
2022-08-06T07:57:55.120Z,22.00
2022-08-06T07:58:36.335Z,21.88
2022-08-06T07:59:36.335Z,21.89
2022-08-06T08:00:38.374Z,21.89
2022-08-06T08:01:37.588Z,21.90
2022-08-06T08:02:37.510Z,22.03
2022-08-06T08:03:57.217Z,22.10
2022-08-06T08:04:51.651Z,22.23
2022-08-06T08:05:39.344Z,22.32
2022-08-06T08:06:43.830Z,22.47
2022-08-06T08:07:53.430Z,22.69
2022-08-06T08:08:36.466Z,22.81
2022-08-06T08:10:01.202Z,22.98
2022-08-06T08:10:36.762Z,23.22
2022-08-06T08:12:28.286Z,23.37
2022-08-06T08:12:38.751Z,23.56
2022-08-06T08:13:41.616Z,23.62
2022-08-06T08:14:36.537Z,23.54
2022-08-06T08:15:43.587Z,23.30
2022-08-06T08:16:38.452Z,23.01
2022-08-06T08:17:36.636Z,22.65
2022-08-06T08:18:36.559Z,22.28
2022-08-06T08:19:36.516Z,22.08
2022-08-06T08:20:37.240Z,22.03
2022-08-06T08:21:36.461Z,21.98
2022-08-06T08:22:36.451Z,21.75
2022-08-06T08:23:38.938Z,21.66
2022-08-06T08:24:36.576Z,21.73
2022-08-06T08:25:40.571Z,21.94
2022-08-06T08:27:22.155Z,22.29
2022-08-06T08:28:17.054Z,22.57
2022-08-06T08:29:26.104Z,22.80
2022-08-06T08:30:15.509Z,22.96
2022-08-06T08:31:20.782Z,23.10
2022-08-06T08:32:17.009Z,23.15
2022-08-06T08:33:18.365Z,22.94
2022-08-06T08:34:15.345Z,22.59
2022-08-06T08:35:15.311Z,22.20
2022-08-06T08:36:15.342Z,21.79
2022-08-06T08:37:18.237Z,21.56
2022-08-06T08:38:15.362Z,21.39
2022-08-06T08:39:15.481Z,21.18
2022-08-06T08:40:15.369Z,21.07
2022-08-06T08:41:15.334Z,20.90
2022-08-06T08:42:17.803Z,20.70
2022-08-06T08:43:20.143Z,20.39
2022-08-06T08:44:15.369Z,20.20
2022-08-06T08:45:15.771Z,20.03
2022-08-06T08:46:15.379Z,19.99
2022-08-06T08:47:15.380Z,20.08
2022-08-06T08:48:15.472Z,20.09
2022-08-06T08:49:16.503Z,20.08
2022-08-06T08:50:15.368Z,19.99
2022-08-06T08:51:15.374Z,19.91
2022-08-06T08:52:15.356Z,19.98
2022-08-06T08:53:15.549Z,20.02
2022-08-06T08:54:17.531Z,19.99
2022-08-06T08:57:09.513Z,19.92
2022-08-06T08:57:10.696Z,19.82
2022-08-06T08:58:39.736Z,19.71
2022-08-06T08:58:42.203Z,19.56
2022-08-06T08:59:57.937Z,19.47
2022-08-06T09:00:15.851Z,19.36
2022-08-06T09:01:51.479Z,19.19
2022-08-06T09:02:15.434Z,19.12
2022-08-06T09:03:15.497Z,19.22
2022-08-06T09:04:15.533Z,19.46
2022-08-06T09:05:15.535Z,19.85
2022-08-06T09:06:29.262Z,20.20
2022-08-06T09:07:25.651Z,20.45
2022-08-06T09:08:19.113Z,20.62
2022-08-06T09:09:16.768Z,20.78
2022-08-06T09:10:16.138Z,20.89
2022-08-06T09:12:02.900Z,20.93
2022-08-06T09:12:19.450Z,20.92
2022-08-06T09:13:22.668Z,20.93
2022-08-06T09:14:15.636Z,21.04
2022-08-06T09:15:17.538Z,21.22
2022-08-06T09:16:19.485Z,21.52
2022-08-06T09:17:18.060Z,21.85
2022-08-06T09:18:27.144Z,22.23
2022-08-06T09:19:15.589Z,22.68
2022-08-06T09:20:15.572Z,23.07
2022-08-06T09:21:15.598Z,23.34
2022-08-06T09:22:15.595Z,23.54
2022-08-06T09:23:15.585Z,23.67
2022-08-06T09:24:15.594Z,23.69
2022-08-06T09:25:16.636Z,23.47
2022-08-06T09:26:15.601Z,23.18
2022-08-06T09:27:32.113Z,22.88
2022-08-06T09:28:15.612Z,22.48
2022-08-06T09:29:23.234Z,22.14
2022-08-06T09:30:27.030Z,21.84
2022-08-06T09:31:22.182Z,21.52
2022-08-06T09:32:18.335Z,21.34
2022-08-06T09:34:28.413Z,21.40
2022-08-06T09:34:29.182Z,21.30
2022-08-06T09:35:17.127Z,21.39
2022-08-06T09:36:15.638Z,21.39
2022-08-06T09:37:15.608Z,21.57
2022-08-06T09:38:16.986Z,21.89
2022-08-06T09:39:22.913Z,22.20
2022-08-06T09:40:15.650Z,22.48
2022-08-06T09:41:16.082Z,22.71
2022-08-06T09:42:15.622Z,22.82
2022-08-06T09:43:15.628Z,22.99
2022-08-06T09:44:35.605Z,23.19
2022-08-06T09:45:17.577Z,23.31
2022-08-06T09:46:15.627Z,23.32
2022-08-06T09:47:26.673Z,23.18
2022-08-06T09:48:17.234Z,23.03
2022-08-06T09:49:47.735Z,22.86
2022-08-06T09:50:22.525Z,22.68
2022-08-06T09:51:15.624Z,22.68
2022-08-06T09:52:17.207Z,22.88
2022-08-06T09:53:19.052Z,23.19
2022-08-06T09:54:25.175Z,23.46
2022-08-06T09:55:17.295Z,23.69
2022-08-06T09:56:15.662Z,23.82
2022-08-06T09:57:15.646Z,23.96
2022-08-06T09:58:15.661Z,24.17
2022-08-06T09:59:15.627Z,24.35
2022-08-06T10:00:15.668Z,24.50
2022-08-06T10:01:22.405Z,24.59
2022-08-06T10:02:15.635Z,24.57
2022-08-06T10:04:05.703Z,24.34
2022-08-06T10:04:22.501Z,24.15
2022-08-06T10:05:19.298Z,24.04
2022-08-06T10:06:15.662Z,24.08
2022-08-06T10:07:15.665Z,24.27
2022-08-06T10:08:15.661Z,24.42
2022-08-06T10:09:40.891Z,24.43
2022-08-06T10:10:28.627Z,24.30
2022-08-06T10:11:15.676Z,23.74
2022-08-06T10:12:15.669Z,23.30
2022-08-06T10:13:15.657Z,22.91
2022-08-06T10:14:15.822Z,22.64
2022-08-06T10:15:15.645Z,22.64
2022-08-06T10:16:15.695Z,22.79
2022-08-06T10:17:15.725Z,22.82
2022-08-06T10:18:16.360Z,22.83
2022-08-06T10:19:19.135Z,22.75
2022-08-06T10:20:18.174Z,22.62
2022-08-06T10:21:16.751Z,22.77
2022-08-06T10:22:15.703Z,23.12
2022-08-06T10:23:15.776Z,23.37
2022-08-06T10:24:26.161Z,23.51
2022-08-06T10:25:15.694Z,23.52
2022-08-06T10:26:15.709Z,23.68
2022-08-06T10:27:15.697Z,23.99
2022-08-06T10:28:15.695Z,24.48
2022-08-06T10:29:15.694Z,25.00
2022-08-06T10:30:15.715Z,25.54
2022-08-06T10:31:21.557Z,25.93
2022-08-06T10:32:15.697Z,26.24
2022-08-06T10:33:22.079Z,26.34
2022-08-06T10:34:17.048Z,26.06
2022-08-06T10:35:15.718Z,25.84
2022-08-06T10:36:21.936Z,25.89
2022-08-06T10:37:57.893Z,26.11
2022-08-06T10:38:15.730Z,26.41
2022-08-06T10:40:08.323Z,26.77
2022-08-06T10:40:15.772Z,27.07
2022-08-06T10:41:59.293Z,27.49
2022-08-06T10:42:22.377Z,27.91
2022-08-06T10:43:15.715Z,28.20
2022-08-06T10:44:16.100Z,28.21
2022-08-06T10:45:16.790Z,27.76
2022-08-06T10:46:15.738Z,27.66
2022-08-06T10:47:18.417Z,27.58
2022-08-06T10:48:59.559Z,27.36
2022-08-06T10:50:24.961Z,27.12
2022-08-06T10:50:30.427Z,26.75
2022-08-06T10:51:15.755Z,26.36
2022-08-06T10:52:16.610Z,26.32
2022-08-06T10:53:20.665Z,26.37
2022-08-06T10:54:19.870Z,26.56
2022-08-06T10:55:15.755Z,26.86
2022-08-06T10:56:18.035Z,27.12
2022-08-06T10:57:19.125Z,26.85
2022-08-06T10:58:15.796Z,26.60
2022-08-06T10:59:19.327Z,26.62
2022-08-06T11:00:15.739Z,26.43
2022-08-06T11:01:15.756Z,26.49
2022-08-06T11:02:17.172Z,26.87
2022-08-06T11:03:16.570Z,27.26
2022-08-06T11:04:15.810Z,27.61
2022-08-06T11:05:21.002Z,27.82
2022-08-06T11:06:15.776Z,28.06
2022-08-06T11:08:08.257Z,28.24
2022-08-06T11:08:23.518Z,28.08
2022-08-06T11:09:15.765Z,28.02
2022-08-06T11:10:15.750Z,28.10
2022-08-06T11:11:19.712Z,28.24
2022-08-06T11:12:17.248Z,28.38
2022-08-06T11:13:15.793Z,28.49
2022-08-06T11:14:19.014Z,28.58
2022-08-06T11:15:15.784Z,28.67
2022-08-06T11:16:15.801Z,28.79
2022-08-06T11:17:15.779Z,28.87
2022-08-06T11:18:16.276Z,28.87
2022-08-06T11:19:15.773Z,28.48
2022-08-06T11:20:15.787Z,28.06
2022-08-06T11:21:15.803Z,27.99
2022-08-06T11:22:15.793Z,28.18
2022-08-06T11:23:52.961Z,28.29
2022-08-06T11:24:15.793Z,27.99
2022-08-06T11:25:26.599Z,27.95
2022-08-06T11:26:15.800Z,28.08
2022-08-06T11:27:15.791Z,28.36
2022-08-06T11:28:15.812Z,28.72
2022-08-06T11:29:15.959Z,29.16
2022-08-06T11:30:15.804Z,29.48
2022-08-06T11:31:18.659Z,29.52
2022-08-06T11:32:20.271Z,29.54
2022-08-06T11:33:15.805Z,29.59
2022-08-06T11:34:15.807Z,29.64
2022-08-06T11:35:15.795Z,29.62
2022-08-06T11:36:15.816Z,29.48
2022-08-06T11:38:03.200Z,29.13
2022-08-06T11:38:24.578Z,28.37
2022-08-06T11:39:17.605Z,27.99
2022-08-06T11:40:15.880Z,28.21
2022-08-06T11:41:50.737Z,28.28
2022-08-06T11:42:15.813Z,28.34
2022-08-06T11:43:15.819Z,28.52
2022-08-06T11:44:16.931Z,28.54
2022-08-06T11:46:19.253Z,28.62
2022-08-06T11:46:20.298Z,28.61
2022-08-06T11:47:15.817Z,28.73
2022-08-06T11:48:27.714Z,29.09
2022-08-06T11:49:17.972Z,29.17
2022-08-06T11:50:15.813Z,29.33
2022-08-06T11:51:15.841Z,29.55
2022-08-06T11:52:15.840Z,29.85
2022-08-06T11:53:15.850Z,29.70
2022-08-06T11:54:15.839Z,29.68
2022-08-06T11:55:22.903Z,29.75
2022-08-06T11:56:15.828Z,29.71
2022-08-06T11:57:23.627Z,29.69
2022-08-06T11:58:16.997Z,29.66
2022-08-06T11:59:15.836Z,29.73
2022-08-06T12:00:15.974Z,29.50
2022-08-06T12:01:34.037Z,29.39
2022-08-06T12:02:17.154Z,29.24
2022-08-06T12:03:15.878Z,29.37
2022-08-06T12:04:15.876Z,29.60
2022-08-06T12:05:17.579Z,29.57
2022-08-06T12:06:15.855Z,29.62
2022-08-06T12:07:16.613Z,29.42
2022-08-06T12:08:38.602Z,29.26
2022-08-06T12:09:23.830Z,29.29
2022-08-06T12:10:15.855Z,29.30
2022-08-06T12:11:15.873Z,29.34
2022-08-06T12:12:15.873Z,29.25
2022-08-06T12:13:16.637Z,29.44
2022-08-06T12:14:33.787Z,29.72
2022-08-06T12:15:24.086Z,29.88
2022-08-06T12:16:15.882Z,29.86
2022-08-06T12:17:18.155Z,29.57
2022-08-06T12:18:19.641Z,29.08
2022-08-06T12:19:15.872Z,28.74
2022-08-06T12:20:33.880Z,28.58
2022-08-06T12:21:15.895Z,28.50
2022-08-06T12:22:15.873Z,28.50
2022-08-06T12:23:15.874Z,28.60
2022-08-06T12:24:15.891Z,28.90
2022-08-06T12:25:15.900Z,29.24
2022-08-06T12:26:15.905Z,29.50
2022-08-06T12:27:15.865Z,29.67
2022-08-06T12:28:15.872Z,29.70
2022-08-06T12:29:16.577Z,29.70
2022-08-06T12:30:15.935Z,29.63
2022-08-06T12:31:35.216Z,29.36
2022-08-06T12:32:15.977Z,29.22
2022-08-06T12:33:17.473Z,29.10
2022-08-06T12:34:15.949Z,29.27
2022-08-06T12:35:15.963Z,29.49
2022-08-06T12:36:15.988Z,29.46
2022-08-06T12:37:17.092Z,29.52
2022-08-06T12:38:15.964Z,29.43
2022-08-06T12:39:19.865Z,29.42
2022-08-06T12:40:16.045Z,29.53
2022-08-06T12:41:20.348Z,29.52
2022-08-06T12:42:15.973Z,29.73
2022-08-06T12:43:16.095Z,30.00
2022-08-06T12:44:20.149Z,30.15
2022-08-06T12:46:04.397Z,30.06
2022-08-06T12:46:18.632Z,29.41
2022-08-06T12:47:15.984Z,29.32
2022-08-06T12:48:16.201Z,29.47
2022-08-06T12:49:15.984Z,29.74
2022-08-06T12:50:15.994Z,30.11
2022-08-06T12:51:17.387Z,30.43
2022-08-06T12:52:16.022Z,30.84